sensor_id;sensor_type;location;lat;lon;timestamp;P1;durP1;ratioP1;P2;durP2;ratioP2
60730;SDS011;46580;52.114;11.674;2023-06-14T00:00:45;1.80;;;1.10;;
60730;SDS011;46580;52.114;11.674;2023-06-14T00:03:11;1.73;;;1.10;;
60730;SDS011;46580;52.114;11.674;2023-06-14T00:05:37;4.40;;;1.33;;
60730;SDS011;46580;52.114;11.674;2023-06-14T00:08:05;1.63;;;1.30;;
60730;SDS011;46580;52.114;11.674;2023-06-14T00:10:33;2.57;;;1.07;;
60730;SDS011;46580;52.114;11.674;2023-06-14T00:13:00;2.70;;;1.17;;
60730;SDS011;46580;52.114;11.674;2023-06-14T00:15:25;5.23;;;1.33;;
60730;SDS011;46580;52.114;11.674;2023-06-14T00:17:50;1.47;;;1.27;;
60730;SDS011;46580;52.114;11.674;2023-06-14T00:20:15;2.50;;;1.20;;
60730;SDS011;46580;52.114;11.674;2023-06-14T00:22:41;2.47;;;1.17;;
60730;SDS011;46580;52.114;11.674;2023-06-14T00:25:06;4.93;;;1.37;;
60730;SDS011;46580;52.114;11.674;2023-06-14T00:27:31;1.67;;;1.20;;
60730;SDS011;46580;52.114;11.674;2023-06-14T00:29:57;4.10;;;1.73;;
60730;SDS011;46580;52.114;11.674;2023-06-14T00:32:23;1.97;;;1.40;;
60730;SDS011;46580;52.114;11.674;2023-06-14T00:34:50;1.10;;;1.00;;
60730;SDS011;46580;52.114;11.674;2023-06-14T00:37:15;3.10;;;1.20;;
60730;SDS011;46580;52.114;11.674;2023-06-14T00:39:41;4.03;;;1.37;;
60730;SDS011;46580;52.114;11.674;2023-06-14T00:42:06;1.80;;;1.10;;
60730;SDS011;46580;52.114;11.674;2023-06-14T00:44:31;3.77;;;1.20;;
60730;SDS011;46580;52.114;11.674;2023-06-14T00:46:56;3.13;;;1.10;;
60730;SDS011;46580;52.114;11.674;2023-06-14T00:49:22;1.50;;;1.30;;
60730;SDS011;46580;52.114;11.674;2023-06-14T00:51:47;1.67;;;1.10;;
60730;SDS011;46580;52.114;11.674;2023-06-14T00:54:13;3.87;;;1.00;;
60730;SDS011;46580;52.114;11.674;2023-06-14T00:56:38;1.30;;;0.80;;
60730;SDS011;46580;52.114;11.674;2023-06-14T00:59:04;2.13;;;1.30;;
60730;SDS011;46580;52.114;11.674;2023-06-14T01:01:30;3.10;;;1.00;;
60730;SDS011;46580;52.114;11.674;2023-06-14T01:03:58;1.70;;;1.07;;
60730;SDS011;46580;52.114;11.674;2023-06-14T01:06:26;3.70;;;1.33;;
60730;SDS011;46580;52.114;11.674;2023-06-14T01:09:01;3.63;;;1.13;;
60730;SDS011;46580;52.114;11.674;2023-06-14T01:11:30;3.17;;;1.30;;
60730;SDS011;46580;52.114;11.674;2023-06-14T01:13:56;2.37;;;1.40;;
60730;SDS011;46580;52.114;11.674;2023-06-14T01:16:22;1.63;;;1.20;;
60730;SDS011;46580;52.114;11.674;2023-06-14T01:18:47;2.70;;;1.30;;
60730;SDS011;46580;52.114;11.674;2023-06-14T01:21:20;3.90;;;1.20;;
60730;SDS011;46580;52.114;11.674;2023-06-14T01:23:45;2.63;;;1.13;;
60730;SDS011;46580;52.114;11.674;2023-06-14T01:26:17;1.63;;;1.20;;
60730;SDS011;46580;52.114;11.674;2023-06-14T01:28:43;1.67;;;1.20;;
60730;SDS011;46580;52.114;11.674;2023-06-14T01:31:13;2.37;;;1.50;;
60730;SDS011;46580;52.114;11.674;2023-06-14T01:33:41;6.47;;;1.37;;
60730;SDS011;46580;52.114;11.674;2023-06-14T01:36:06;1.73;;;1.40;;
60730;SDS011;46580;52.114;11.674;2023-06-14T01:38:33;1.47;;;1.17;;
60730;SDS011;46580;52.114;11.674;2023-06-14T01:40:58;1.47;;;1.03;;
60730;SDS011;46580;52.114;11.674;2023-06-14T01:43:25;3.13;;;1.23;;
60730;SDS011;46580;52.114;11.674;2023-06-14T01:45:51;1.63;;;1.30;;
60730;SDS011;46580;52.114;11.674;2023-06-14T01:48:18;1.73;;;1.40;;
60730;SDS011;46580;52.114;11.674;2023-06-14T01:50:44;2.90;;;1.60;;
60730;SDS011;46580;52.114;11.674;2023-06-14T01:53:10;4.70;;;0.80;;
60730;SDS011;46580;52.114;11.674;2023-06-14T01:55:35;2.87;;;1.30;;
60730;SDS011;46580;52.114;11.674;2023-06-14T01:58:02;1.40;;;1.10;;
60730;SDS011;46580;52.114;11.674;2023-06-14T02:00:27;3.67;;;1.37;;
60730;SDS011;46580;52.114;11.674;2023-06-14T02:02:52;3.87;;;1.47;;
60730;SDS011;46580;52.114;11.674;2023-06-14T02:05:18;2.00;;;1.60;;
60730;SDS011;46580;52.114;11.674;2023-06-14T02:07:44;3.00;;;1.30;;
60730;SDS011;46580;52.114;11.674;2023-06-14T02:10:09;2.47;;;1.50;;
60730;SDS011;46580;52.114;11.674;2023-06-14T02:12:34;4.43;;;1.40;;
60730;SDS011;46580;52.114;11.674;2023-06-14T02:14:59;3.00;;;1.40;;
60730;SDS011;46580;52.114;11.674;2023-06-14T02:17:25;2.00;;;1.30;;
60730;SDS011;46580;52.114;11.674;2023-06-14T02:19:51;2.10;;;1.33;;
60730;SDS011;46580;52.114;11.674;2023-06-14T02:22:16;2.53;;;1.47;;
60730;SDS011;46580;52.114;11.674;2023-06-14T02:24:42;2.10;;;1.30;;
60730;SDS011;46580;52.114;11.674;2023-06-14T02:27:07;1.90;;;1.33;;
60730;SDS011;46580;52.114;11.674;2023-06-14T02:29:35;2.00;;;1.60;;
60730;SDS011;46580;52.114;11.674;2023-06-14T02:32:00;1.60;;;1.30;;
60730;SDS011;46580;52.114;11.674;2023-06-14T02:34:26;4.83;;;1.67;;
60730;SDS011;46580;52.114;11.674;2023-06-14T02:36:51;1.50;;;1.40;;
60730;SDS011;46580;52.114;11.674;2023-06-14T02:39:17;3.20;;;1.70;;
60730;SDS011;46580;52.114;11.674;2023-06-14T02:41:45;1.63;;;1.27;;
60730;SDS011;46580;52.114;11.674;2023-06-14T02:44:12;1.67;;;1.57;;
60730;SDS011;46580;52.114;11.674;2023-06-14T02:46:38;3.17;;;2.10;;
60730;SDS011;46580;52.114;11.674;2023-06-14T02:49:03;2.70;;;1.33;;
60730;SDS011;46580;52.114;11.674;2023-06-14T02:51:28;3.03;;;1.70;;
60730;SDS011;46580;52.114;11.674;2023-06-14T02:53:53;3.13;;;1.90;;
60730;SDS011;46580;52.114;11.674;2023-06-14T02:56:19;4.83;;;1.70;;
60730;SDS011;46580;52.114;11.674;2023-06-14T02:58:44;5.23;;;1.83;;
60730;SDS011;46580;52.114;11.674;2023-06-14T03:01:09;2.17;;;1.83;;
60730;SDS011;46580;52.114;11.674;2023-06-14T03:03:37;2.47;;;1.57;;
60730;SDS011;46580;52.114;11.674;2023-06-14T03:06:03;2.43;;;1.80;;
60730;SDS011;46580;52.114;11.674;2023-06-14T03:08:32;3.23;;;1.60;;
60730;SDS011;46580;52.114;11.674;2023-06-14T03:11:03;2.83;;;1.97;;
60730;SDS011;46580;52.114;11.674;2023-06-14T03:13:30;2.90;;;2.00;;
60730;SDS011;46580;52.114;11.674;2023-06-14T03:15:57;3.27;;;1.60;;
60730;SDS011;46580;52.114;11.674;2023-06-14T03:18:22;2.93;;;1.80;;
60730;SDS011;46580;52.114;11.674;2023-06-14T03:20:47;1.90;;;1.70;;
60730;SDS011;46580;52.114;11.674;2023-06-14T03:23:12;2.67;;;1.90;;
60730;SDS011;46580;52.114;11.674;2023-06-14T03:25:38;1.97;;;1.77;;
60730;SDS011;46580;52.114;11.674;2023-06-14T03:28:05;2.73;;;2.10;;
60730;SDS011;46580;52.114;11.674;2023-06-14T03:30:30;2.40;;;1.57;;
60730;SDS011;46580;52.114;11.674;2023-06-14T03:32:56;2.57;;;2.13;;
60730;SDS011;46580;52.114;11.674;2023-06-14T03:35:21;4.50;;;2.27;;
60730;SDS011;46580;52.114;11.674;2023-06-14T03:37:47;3.70;;;2.10;;
60730;SDS011;46580;52.114;11.674;2023-06-14T03:40:13;2.73;;;1.83;;
60730;SDS011;46580;52.114;11.674;2023-06-14T03:42:39;5.70;;;2.50;;
60730;SDS011;46580;52.114;11.674;2023-06-14T03:45:04;5.77;;;2.03;;
60730;SDS011;46580;52.114;11.674;2023-06-14T03:47:30;2.53;;;2.07;;
60730;SDS011;46580;52.114;11.674;2023-06-14T03:49:55;3.53;;;2.40;;
60730;SDS011;46580;52.114;11.674;2023-06-14T03:52:20;4.13;;;2.20;;
60730;SDS011;46580;52.114;11.674;2023-06-14T03:54:47;4.60;;;2.77;;
60730;SDS011;46580;52.114;11.674;2023-06-14T03:57:12;3.73;;;2.53;;
60730;SDS011;46580;52.114;11.674;2023-06-14T03:59:38;4.17;;;2.20;;
60730;SDS011;46580;52.114;11.674;2023-06-14T04:02:03;4.90;;;2.83;;
60730;SDS011;46580;52.114;11.674;2023-06-14T04:04:28;3.17;;;2.47;;
60730;SDS011;46580;52.114;11.674;2023-06-14T04:06:54;3.70;;;2.43;;
60730;SDS011;46580;52.114;11.674;2023-06-14T04:09:20;3.37;;;2.37;;
60730;SDS011;46580;52.114;11.674;2023-06-14T04:11:45;2.93;;;2.00;;
60730;SDS011;46580;52.114;11.674;2023-06-14T04:14:10;2.60;;;2.13;;
60730;SDS011;46580;52.114;11.674;2023-06-14T04:16:35;4.30;;;2.10;;
60730;SDS011;46580;52.114;11.674;2023-06-14T04:19:01;5.53;;;2.67;;
60730;SDS011;46580;52.114;11.674;2023-06-14T04:21:26;3.60;;;2.40;;
60730;SDS011;46580;52.114;11.674;2023-06-14T04:23:53;4.07;;;2.43;;
60730;SDS011;46580;52.114;11.674;2023-06-14T04:26:20;3.23;;;2.57;;
60730;SDS011;46580;52.114;11.674;2023-06-14T04:28:46;2.60;;;2.17;;
60730;SDS011;46580;52.114;11.674;2023-06-14T04:31:12;2.80;;;2.40;;
60730;SDS011;46580;52.114;11.674;2023-06-14T04:33:37;2.97;;;2.33;;
60730;SDS011;46580;52.114;11.674;2023-06-14T04:36:09;5.10;;;2.60;;
60730;SDS011;46580;52.114;11.674;2023-06-14T04:38:35;2.73;;;2.40;;
60730;SDS011;46580;52.114;11.674;2023-06-14T04:41:00;2.67;;;2.20;;
60730;SDS011;46580;52.114;11.674;2023-06-14T04:43:27;3.77;;;2.80;;
60730;SDS011;46580;52.114;11.674;2023-06-14T04:45:52;4.67;;;2.60;;
60730;SDS011;46580;52.114;11.674;2023-06-14T04:48:19;3.57;;;2.50;;
60730;SDS011;46580;52.114;11.674;2023-06-14T04:50:45;5.77;;;2.67;;
60730;SDS011;46580;52.114;11.674;2023-06-14T04:53:10;3.53;;;2.63;;
60730;SDS011;46580;52.114;11.674;2023-06-14T04:55:36;3.77;;;2.60;;
60730;SDS011;46580;52.114;11.674;2023-06-14T04:58:02;4.70;;;2.60;;
60730;SDS011;46580;52.114;11.674;2023-06-14T05:00:28;5.20;;;2.10;;
60730;SDS011;46580;52.114;11.674;2023-06-14T05:02:53;3.50;;;2.30;;
60730;SDS011;46580;52.114;11.674;2023-06-14T05:05:18;3.57;;;2.80;;
60730;SDS011;46580;52.114;11.674;2023-06-14T05:07:44;3.17;;;2.50;;
60730;SDS011;46580;52.114;11.674;2023-06-14T05:10:10;3.20;;;2.80;;
60730;SDS011;46580;52.114;11.674;2023-06-14T05:12:35;6.27;;;2.30;;
60730;SDS011;46580;52.114;11.674;2023-06-14T05:15:01;4.60;;;3.17;;
60730;SDS011;46580;52.114;11.674;2023-06-14T05:17:27;5.03;;;2.80;;
60730;SDS011;46580;52.114;11.674;2023-06-14T05:19:53;3.30;;;2.80;;
60730;SDS011;46580;52.114;11.674;2023-06-14T05:22:18;5.30;;;2.60;;
60730;SDS011;46580;52.114;11.674;2023-06-14T05:24:43;2.80;;;2.60;;
60730;SDS011;46580;52.114;11.674;2023-06-14T05:27:08;3.97;;;2.80;;
60730;SDS011;46580;52.114;11.674;2023-06-14T05:29:34;4.07;;;2.90;;
60730;SDS011;46580;52.114;11.674;2023-06-14T05:31:59;3.57;;;2.60;;
60730;SDS011;46580;52.114;11.674;2023-06-14T05:34:24;3.87;;;2.83;;
60730;SDS011;46580;52.114;11.674;2023-06-14T05:36:50;4.63;;;2.80;;
60730;SDS011;46580;52.114;11.674;2023-06-14T05:39:15;3.90;;;3.00;;
60730;SDS011;46580;52.114;11.674;2023-06-14T05:41:40;3.43;;;2.57;;
60730;SDS011;46580;52.114;11.674;2023-06-14T05:44:06;3.63;;;3.13;;
60730;SDS011;46580;52.114;11.674;2023-06-14T05:46:32;4.90;;;3.03;;
60730;SDS011;46580;52.114;11.674;2023-06-14T05:48:58;5.47;;;2.80;;
60730;SDS011;46580;52.114;11.674;2023-06-14T05:51:23;7.73;;;3.20;;
60730;SDS011;46580;52.114;11.674;2023-06-14T05:53:50;3.40;;;2.63;;
60730;SDS011;46580;52.114;11.674;2023-06-14T05:56:16;3.57;;;2.47;;
60730;SDS011;46580;52.114;11.674;2023-06-14T05:58:48;3.13;;;2.83;;
60730;SDS011;46580;52.114;11.674;2023-06-14T06:01:13;5.97;;;3.07;;
60730;SDS011;46580;52.114;11.674;2023-06-14T06:03:38;4.57;;;3.40;;
60730;SDS011;46580;52.114;11.674;2023-06-14T06:06:04;3.83;;;2.83;;
60730;SDS011;46580;52.114;11.674;2023-06-14T06:08:29;4.67;;;3.43;;
60730;SDS011;46580;52.114;11.674;2023-06-14T06:10:55;3.77;;;3.23;;
60730;SDS011;46580;52.114;11.674;2023-06-14T06:13:20;3.30;;;2.77;;
60730;SDS011;46580;52.114;11.674;2023-06-14T06:15:45;4.60;;;3.13;;
60730;SDS011;46580;52.114;11.674;2023-06-14T06:18:11;4.37;;;3.10;;
60730;SDS011;46580;52.114;11.674;2023-06-14T06:20:36;4.43;;;2.80;;
60730;SDS011;46580;52.114;11.674;2023-06-14T06:23:02;3.70;;;2.73;;
60730;SDS011;46580;52.114;11.674;2023-06-14T06:25:27;3.47;;;3.00;;
60730;SDS011;46580;52.114;11.674;2023-06-14T06:27:53;4.40;;;3.27;;
60730;SDS011;46580;52.114;11.674;2023-06-14T06:30:19;4.13;;;2.80;;
60730;SDS011;46580;52.114;11.674;2023-06-14T06:32:44;3.60;;;2.67;;
60730;SDS011;46580;52.114;11.674;2023-06-14T06:35:09;4.73;;;3.23;;
60730;SDS011;46580;52.114;11.674;2023-06-14T06:37:36;7.07;;;2.83;;
60730;SDS011;46580;52.114;11.674;2023-06-14T06:40:01;5.43;;;2.77;;
60730;SDS011;46580;52.114;11.674;2023-06-14T06:42:28;3.70;;;2.57;;
60730;SDS011;46580;52.114;11.674;2023-06-14T06:44:53;3.87;;;2.30;;
60730;SDS011;46580;52.114;11.674;2023-06-14T06:47:18;3.03;;;2.50;;
60730;SDS011;46580;52.114;11.674;2023-06-14T06:49:43;2.40;;;2.10;;
60730;SDS011;46580;52.114;11.674;2023-06-14T06:52:09;2.67;;;2.10;;
60730;SDS011;46580;52.114;11.674;2023-06-14T06:54:34;3.80;;;2.07;;
60730;SDS011;46580;52.114;11.674;2023-06-14T06:57:00;5.13;;;2.20;;
60730;SDS011;46580;52.114;11.674;2023-06-14T06:59:26;3.77;;;1.90;;
60730;SDS011;46580;52.114;11.674;2023-06-14T07:01:51;2.67;;;2.23;;
60730;SDS011;46580;52.114;11.674;2023-06-14T07:04:16;3.93;;;2.27;;
60730;SDS011;46580;52.114;11.674;2023-06-14T07:06:42;1.90;;;1.70;;
60730;SDS011;46580;52.114;11.674;2023-06-14T07:09:07;3.97;;;2.37;;
60730;SDS011;46580;52.114;11.674;2023-06-14T07:11:37;2.00;;;1.77;;
60730;SDS011;46580;52.114;11.674;2023-06-14T07:14:02;1.70;;;1.60;;
60730;SDS011;46580;52.114;11.674;2023-06-14T07:16:27;2.73;;;1.73;;
60730;SDS011;46580;52.114;11.674;2023-06-14T07:18:53;2.33;;;1.87;;
60730;SDS011;46580;52.114;11.674;2023-06-14T07:21:18;2.97;;;1.57;;
60730;SDS011;46580;52.114;11.674;2023-06-14T07:23:43;2.03;;;1.83;;
60730;SDS011;46580;52.114;11.674;2023-06-14T07:26:09;1.60;;;1.23;;
60730;SDS011;46580;52.114;11.674;2023-06-14T07:28:34;2.47;;;1.63;;
60730;SDS011;46580;52.114;11.674;2023-06-14T07:30:59;2.80;;;1.70;;
60730;SDS011;46580;52.114;11.674;2023-06-14T07:33:24;3.23;;;1.77;;
60730;SDS011;46580;52.114;11.674;2023-06-14T07:35:50;1.90;;;1.53;;
60730;SDS011;46580;52.114;11.674;2023-06-14T07:38:15;4.20;;;1.50;;
60730;SDS011;46580;52.114;11.674;2023-06-14T07:40:40;1.93;;;1.70;;
60730;SDS011;46580;52.114;11.674;2023-06-14T07:43:06;1.97;;;1.33;;
60730;SDS011;46580;52.114;11.674;2023-06-14T07:45:31;2.27;;;1.60;;
60730;SDS011;46580;52.114;11.674;2023-06-14T07:47:56;2.27;;;1.90;;
60730;SDS011;46580;52.114;11.674;2023-06-14T07:50:21;2.27;;;1.80;;
60730;SDS011;46580;52.114;11.674;2023-06-14T07:53:14;1.70;;;1.60;;
60730;SDS011;46580;52.114;11.674;2023-06-14T07:55:39;2.63;;;1.80;;
60730;SDS011;46580;52.114;11.674;2023-06-14T07:58:07;2.07;;;1.50;;
60730;SDS011;46580;52.114;11.674;2023-06-14T08:00:34;2.63;;;1.73;;
60730;SDS011;46580;52.114;11.674;2023-06-14T08:02:59;4.50;;;1.47;;
60730;SDS011;46580;52.114;11.674;2023-06-14T08:05:25;4.03;;;1.60;;
60730;SDS011;46580;52.114;11.674;2023-06-14T08:07:51;2.60;;;1.57;;
60730;SDS011;46580;52.114;11.674;2023-06-14T08:10:16;2.13;;;1.70;;
60730;SDS011;46580;52.114;11.674;2023-06-14T08:12:41;1.50;;;1.40;;
60730;SDS011;46580;52.114;11.674;2023-06-14T08:15:07;2.10;;;1.50;;
60730;SDS011;46580;52.114;11.674;2023-06-14T08:17:32;2.10;;;1.50;;
60730;SDS011;46580;52.114;11.674;2023-06-14T08:19:58;2.80;;;1.70;;
60730;SDS011;46580;52.114;11.674;2023-06-14T08:22:24;1.73;;;1.50;;
60730;SDS011;46580;52.114;11.674;2023-06-14T08:24:50;2.57;;;1.47;;
60730;SDS011;46580;52.114;11.674;2023-06-14T08:27:15;3.27;;;1.60;;
60730;SDS011;46580;52.114;11.674;2023-06-14T08:29:40;1.77;;;1.33;;
60730;SDS011;46580;52.114;11.674;2023-06-14T08:32:06;3.13;;;1.40;;
60730;SDS011;46580;52.114;11.674;2023-06-14T08:34:32;2.10;;;1.70;;
60730;SDS011;46580;52.114;11.674;2023-06-14T08:36:57;3.07;;;1.90;;
60730;SDS011;46580;52.114;11.674;2023-06-14T08:39:22;4.30;;;1.53;;
60730;SDS011;46580;52.114;11.674;2023-06-14T08:41:47;3.53;;;2.07;;
60730;SDS011;46580;52.114;11.674;2023-06-14T08:44:13;2.17;;;1.67;;
60730;SDS011;46580;52.114;11.674;2023-06-14T08:46:40;3.10;;;1.67;;
60730;SDS011;46580;52.114;11.674;2023-06-14T08:49:06;2.10;;;1.70;;
60730;SDS011;46580;52.114;11.674;2023-06-14T08:51:32;1.87;;;1.60;;
60730;SDS011;46580;52.114;11.674;2023-06-14T08:54:02;2.13;;;1.60;;
60730;SDS011;46580;52.114;11.674;2023-06-14T08:56:29;2.17;;;1.70;;
60730;SDS011;46580;52.114;11.674;2023-06-14T08:58:55;1.90;;;1.67;;
60730;SDS011;46580;52.114;11.674;2023-06-14T09:01:21;3.63;;;1.80;;
60730;SDS011;46580;52.114;11.674;2023-06-14T09:03:46;4.43;;;2.20;;
60730;SDS011;46580;52.114;11.674;2023-06-14T09:06:13;2.63;;;1.67;;
60730;SDS011;46580;52.114;11.674;2023-06-14T09:08:40;3.50;;;2.03;;
60730;SDS011;46580;52.114;11.674;2023-06-14T09:11:05;2.53;;;1.77;;
60730;SDS011;46580;52.114;11.674;2023-06-14T09:13:31;3.70;;;2.20;;
60730;SDS011;46580;52.114;11.674;2023-06-14T09:15:56;2.13;;;1.90;;
60730;SDS011;46580;52.114;11.674;2023-06-14T09:18:22;2.17;;;1.97;;
60730;SDS011;46580;52.114;11.674;2023-06-14T09:20:58;2.53;;;1.93;;
60730;SDS011;46580;52.114;11.674;2023-06-14T09:23:23;4.43;;;2.10;;
60730;SDS011;46580;52.114;11.674;2023-06-14T09:25:49;3.70;;;2.10;;
60730;SDS011;46580;52.114;11.674;2023-06-14T09:28:15;2.43;;;2.03;;
60730;SDS011;46580;52.114;11.674;2023-06-14T09:30:40;4.13;;;2.10;;
60730;SDS011;46580;52.114;11.674;2023-06-14T09:33:05;2.57;;;1.90;;
60730;SDS011;46580;52.114;11.674;2023-06-14T09:35:31;2.07;;;1.70;;
60730;SDS011;46580;52.114;11.674;2023-06-14T09:37:57;6.03;;;2.20;;
60730;SDS011;46580;52.114;11.674;2023-06-14T09:40:22;3.43;;;2.20;;
60730;SDS011;46580;52.114;11.674;2023-06-14T09:42:48;2.70;;;2.27;;
60730;SDS011;46580;52.114;11.674;2023-06-14T09:45:13;3.10;;;2.30;;
60730;SDS011;46580;52.114;11.674;2023-06-14T09:47:40;2.70;;;2.03;;
60730;SDS011;46580;52.114;11.674;2023-06-14T09:50:06;4.07;;;2.20;;
60730;SDS011;46580;52.114;11.674;2023-06-14T09:52:31;3.03;;;1.73;;
60730;SDS011;46580;52.114;11.674;2023-06-14T09:54:56;4.03;;;2.50;;
60730;SDS011;46580;52.114;11.674;2023-06-14T09:57:24;4.87;;;1.90;;
60730;SDS011;46580;52.114;11.674;2023-06-14T09:59:52;2.83;;;2.13;;
60730;SDS011;46580;52.114;11.674;2023-06-14T10:04:46;3.73;;;2.23;;
60730;SDS011;46580;52.114;11.674;2023-06-14T10:07:13;6.27;;;2.60;;
60730;SDS011;46580;52.114;11.674;2023-06-14T10:09:40;4.63;;;2.30;;
60730;SDS011;46580;52.114;11.674;2023-06-14T10:12:09;2.90;;;1.90;;
60730;SDS011;46580;52.114;11.674;2023-06-14T10:14:35;3.23;;;2.07;;
60730;SDS011;46580;52.114;11.674;2023-06-14T10:17:03;4.60;;;2.50;;
60730;SDS011;46580;52.114;11.674;2023-06-14T10:19:32;5.43;;;2.07;;
60730;SDS011;46580;52.114;11.674;2023-06-14T10:22:01;3.40;;;2.17;;
60730;SDS011;46580;52.114;11.674;2023-06-14T10:24:29;3.27;;;2.07;;
60730;SDS011;46580;52.114;11.674;2023-06-14T10:26:56;4.13;;;2.40;;
60730;SDS011;46580;52.114;11.674;2023-06-14T10:29:22;4.63;;;2.40;;
60730;SDS011;46580;52.114;11.674;2023-06-14T10:31:48;3.73;;;2.87;;
60730;SDS011;46580;52.114;11.674;2023-06-14T10:34:23;2.67;;;1.83;;
60730;SDS011;46580;52.114;11.674;2023-06-14T10:36:59;5.90;;;2.43;;
60730;SDS011;46580;52.114;11.674;2023-06-14T10:39:26;3.33;;;2.40;;
60730;SDS011;46580;52.114;11.674;2023-06-14T10:41:52;2.07;;;1.70;;
60730;SDS011;46580;52.114;11.674;2023-06-14T10:46:46;2.47;;;1.90;;
60730;SDS011;46580;52.114;11.674;2023-06-14T10:49:11;2.87;;;2.50;;
60730;SDS011;46580;52.114;11.674;2023-06-14T10:51:41;3.40;;;2.10;;
60730;SDS011;46580;52.114;11.674;2023-06-14T10:54:14;5.13;;;2.20;;
60730;SDS011;46580;52.114;11.674;2023-06-14T10:56:47;3.50;;;2.00;;
60730;SDS011;46580;52.114;11.674;2023-06-14T10:59:13;4.13;;;2.27;;
60730;SDS011;46580;52.114;11.674;2023-06-14T11:01:41;4.63;;;2.27;;
60730;SDS011;46580;52.114;11.674;2023-06-14T11:04:12;2.67;;;2.00;;
60730;SDS011;46580;52.114;11.674;2023-06-14T11:06:47;5.03;;;2.00;;
60730;SDS011;46580;52.114;11.674;2023-06-14T11:11:51;4.77;;;2.40;;
60730;SDS011;46580;52.114;11.674;2023-06-14T11:14:16;4.47;;;2.53;;
60730;SDS011;46580;52.114;11.674;2023-06-14T11:16:42;5.47;;;2.03;;
60730;SDS011;46580;52.114;11.674;2023-06-14T11:19:12;4.43;;;1.93;;
60730;SDS011;46580;52.114;11.674;2023-06-14T11:21:39;3.67;;;2.20;;
60730;SDS011;46580;52.114;11.674;2023-06-14T11:24:09;6.10;;;2.17;;
60730;SDS011;46580;52.114;11.674;2023-06-14T11:26:37;3.87;;;2.60;;
60730;SDS011;46580;52.114;11.674;2023-06-14T11:29:02;3.33;;;2.30;;
60730;SDS011;46580;52.114;11.674;2023-06-14T11:31:27;2.83;;;2.13;;
60730;SDS011;46580;52.114;11.674;2023-06-14T11:33:53;6.70;;;2.23;;
60730;SDS011;46580;52.114;11.674;2023-06-14T11:36:18;2.90;;;1.77;;
60730;SDS011;46580;52.114;11.674;2023-06-14T11:38:44;3.50;;;2.40;;
60730;SDS011;46580;52.114;11.674;2023-06-14T11:41:10;5.67;;;2.23;;
60730;SDS011;46580;52.114;11.674;2023-06-14T11:43:35;3.97;;;2.70;;
60730;SDS011;46580;52.114;11.674;2023-06-14T11:46:01;6.67;;;2.27;;
60730;SDS011;46580;52.114;11.674;2023-06-14T11:48:36;3.43;;;2.43;;
60730;SDS011;46580;52.114;11.674;2023-06-14T11:51:02;7.03;;;2.40;;
60730;SDS011;46580;52.114;11.674;2023-06-14T11:53:27;3.57;;;2.03;;
60730;SDS011;46580;52.114;11.674;2023-06-14T11:55:52;3.53;;;2.23;;
60730;SDS011;46580;52.114;11.674;2023-06-14T11:58:18;6.87;;;2.33;;
60730;SDS011;46580;52.114;11.674;2023-06-14T12:00:43;4.83;;;2.10;;
60730;SDS011;46580;52.114;11.674;2023-06-14T12:03:08;5.03;;;2.20;;
60730;SDS011;46580;52.114;11.674;2023-06-14T12:05:34;5.00;;;2.10;;
60730;SDS011;46580;52.114;11.674;2023-06-14T12:07:59;7.13;;;2.37;;
60730;SDS011;46580;52.114;11.674;2023-06-14T12:10:25;8.00;;;2.20;;
60730;SDS011;46580;52.114;11.674;2023-06-14T12:12:51;9.43;;;2.30;;
60730;SDS011;46580;52.114;11.674;2023-06-14T12:15:16;5.00;;;2.30;;
60730;SDS011;46580;52.114;11.674;2023-06-14T12:17:42;3.67;;;1.87;;
60730;SDS011;46580;52.114;11.674;2023-06-14T12:20:08;8.17;;;2.27;;
60730;SDS011;46580;52.114;11.674;2023-06-14T12:22:38;4.93;;;2.30;;
60730;SDS011;46580;52.114;11.674;2023-06-14T12:25:04;4.30;;;2.13;;
60730;SDS011;46580;52.114;11.674;2023-06-14T12:27:29;3.53;;;2.03;;
60730;SDS011;46580;52.114;11.674;2023-06-14T12:30:01;4.10;;;1.93;;
60730;SDS011;46580;52.114;11.674;2023-06-14T12:32:27;4.00;;;2.40;;
60730;SDS011;46580;52.114;11.674;2023-06-14T12:34:52;4.67;;;2.37;;
60730;SDS011;46580;52.114;11.674;2023-06-14T12:37:18;6.57;;;2.90;;
60730;SDS011;46580;52.114;11.674;2023-06-14T12:39:43;6.80;;;2.13;;
60730;SDS011;46580;52.114;11.674;2023-06-14T12:42:08;3.87;;;2.17;;
60730;SDS011;46580;52.114;11.674;2023-06-14T12:44:34;2.50;;;1.80;;
60730;SDS011;46580;52.114;11.674;2023-06-14T12:47:00;6.17;;;2.10;;
60730;SDS011;46580;52.114;11.674;2023-06-14T12:49:26;7.27;;;2.17;;
60730;SDS011;46580;52.114;11.674;2023-06-14T12:51:51;2.60;;;2.03;;
60730;SDS011;46580;52.114;11.674;2023-06-14T12:54:16;6.63;;;2.00;;
60730;SDS011;46580;52.114;11.674;2023-06-14T12:56:42;4.27;;;2.27;;
60730;SDS011;46580;52.114;11.674;2023-06-14T12:59:09;3.07;;;1.90;;
60730;SDS011;46580;52.114;11.674;2023-06-14T13:04:01;2.30;;;1.93;;
60730;SDS011;46580;52.114;11.674;2023-06-14T13:06:27;7.60;;;2.67;;
60730;SDS011;46580;52.114;11.674;2023-06-14T13:08:54;6.73;;;2.03;;
60730;SDS011;46580;52.114;11.674;2023-06-14T13:11:22;4.87;;;2.23;;
60730;SDS011;46580;52.114;11.674;2023-06-14T13:13:47;3.77;;;1.90;;
60730;SDS011;46580;52.114;11.674;2023-06-14T13:16:13;4.50;;;2.77;;
60730;SDS011;46580;52.114;11.674;2023-06-14T13:18:39;5.93;;;2.37;;
60730;SDS011;46580;52.114;11.674;2023-06-14T13:21:04;4.10;;;1.90;;
60730;SDS011;46580;52.114;11.674;2023-06-14T13:23:30;5.30;;;2.67;;
60730;SDS011;46580;52.114;11.674;2023-06-14T13:25:55;6.77;;;2.23;;
60730;SDS011;46580;52.114;11.674;2023-06-14T13:28:20;9.90;;;2.20;;
60730;SDS011;46580;52.114;11.674;2023-06-14T13:30:46;10.47;;;2.40;;
60730;SDS011;46580;52.114;11.674;2023-06-14T13:33:12;5.17;;;2.60;;
60730;SDS011;46580;52.114;11.674;2023-06-14T13:35:38;3.70;;;2.20;;
60730;SDS011;46580;52.114;11.674;2023-06-14T13:38:03;6.90;;;2.30;;
60730;SDS011;46580;52.114;11.674;2023-06-14T13:40:28;5.40;;;2.63;;
60730;SDS011;46580;52.114;11.674;2023-06-14T13:42:53;8.93;;;2.30;;
60730;SDS011;46580;52.114;11.674;2023-06-14T13:45:19;6.17;;;2.20;;
60730;SDS011;46580;52.114;11.674;2023-06-14T13:47:44;4.27;;;2.33;;
60730;SDS011;46580;52.114;11.674;2023-06-14T13:50:10;3.97;;;2.23;;
60730;SDS011;46580;52.114;11.674;2023-06-14T13:52:35;5.40;;;2.30;;
60730;SDS011;46580;52.114;11.674;2023-06-14T13:55:00;4.63;;;2.00;;
60730;SDS011;46580;52.114;11.674;2023-06-14T13:57:26;7.10;;;2.67;;
60730;SDS011;46580;52.114;11.674;2023-06-14T13:59:51;4.40;;;2.20;;
60730;SDS011;46580;52.114;11.674;2023-06-14T14:02:18;4.83;;;2.50;;
60730;SDS011;46580;52.114;11.674;2023-06-14T14:04:43;4.67;;;2.23;;
60730;SDS011;46580;52.114;11.674;2023-06-14T14:07:09;3.60;;;2.10;;
60730;SDS011;46580;52.114;11.674;2023-06-14T14:09:34;3.70;;;2.40;;
60730;SDS011;46580;52.114;11.674;2023-06-14T14:12:00;5.97;;;2.50;;
60730;SDS011;46580;52.114;11.674;2023-06-14T14:14:27;5.37;;;2.30;;
60730;SDS011;46580;52.114;11.674;2023-06-14T14:16:52;4.53;;;2.27;;
60730;SDS011;46580;52.114;11.674;2023-06-14T14:19:18;4.13;;;2.40;;
60730;SDS011;46580;52.114;11.674;2023-06-14T14:21:44;9.33;;;2.67;;
60730;SDS011;46580;52.114;11.674;2023-06-14T14:24:09;5.47;;;2.40;;
60730;SDS011;46580;52.114;11.674;2023-06-14T14:26:34;2.83;;;2.00;;
60730;SDS011;46580;52.114;11.674;2023-06-14T14:29:00;2.77;;;2.13;;
60730;SDS011;46580;52.114;11.674;2023-06-14T14:31:25;7.87;;;2.57;;
60730;SDS011;46580;52.114;11.674;2023-06-14T14:33:50;4.50;;;2.30;;
60730;SDS011;46580;52.114;11.674;2023-06-14T14:36:16;5.63;;;2.40;;